Stations météo

réclame
Mon MeteoGroup
Nordkoster, Suède (2500): Température de l'air: 19.02.2018 06:00:00 - 25.02.2018 06:00:00 (CET)Nordkoster, Suède (2500): Vitesse du vent & gusts: 19.02.2018 06:00:00 - 25.02.2018 06:00:00 (CET)Nordkoster, Suède (2500): Direction du vent: 19.02.2018 06:00:00 - 25.02.2018 06:00:00 (CET)Nordkoster, Suède (2500): reduced air pressure: 19.02.2018 06:00:00 - 25.02.2018 06:00:00 (CET)Nordkoster, Suède (2500): visibility: 19.02.2018 06:00:00 - 25.02.2018 06:00:00 (CET)Nordkoster, Suède (2500): Quantités de précipitations: 19.02.2018 06:00:00 - 25.02.2018 06:00:00 (CET)
Date & Time tt [°C] ff [km/h] ff [knt] fx [km/h] fx [knt] dd ppp [hPa] vv [km] rr [mm]
25.02.2018 06:00:00 -5,6 15 8 27 15 E 1040,4 47 0,0
25.02.2018 05:00:00 -5,3 15 8 24 13 E 1039,9 30 0,0
25.02.2018 04:00:00 -5,3 17 9 24 13 E 1039,6 3,4 0,1
25.02.2018 03:00:00 -5,0 15 8 27 15 ESE 1039,3 3,5 0,0
25.02.2018 02:00:00 -4,6 13 7 23 12 ESE 1039,0 10 0,1
25.02.2018 01:00:00 -4,7 16 9 25 14 ESE 1038,9 22 0,0
25.02.2018 00:00:00 -4,6 16 8 26 14 ESE 1038,8 4,6 0,1
24.02.2018 23:00:00 -4,1 18 10 27 15 ESE 1038,5 44 0,0
24.02.2018 22:00:00 -3,9 16 8 22 12 ESE 1038,2 50 0,0
24.02.2018 21:00:00 -3,5 14 7 20 11 ESE 1038,1 50 0,0
24.02.2018 20:00:00 -3,0 10 6 14 8 ESE 1038,2 28 0,0
24.02.2018 19:00:00 -2,5 0 0 7 4 N 1038,2 50 0,0
24.02.2018 18:00:00 -2,5 4 2 8 4 WSW 1038,2 50 0,0
24.02.2018 17:00:00 -2,2 2 1 6 4 NW 1038,4 50 0,0
24.02.2018 16:00:00 -2,0 0 0 9 5 N 1038,5 50 0,0
24.02.2018 15:00:00 -1,9 3 2 10 5 SSW 1038,6 50 0,0
24.02.2018 14:00:00 -1,6 4 2 9 5 S 1038,9 43 0,0
24.02.2018 13:00:00 -1,7 5 3 17 9 ESE 1039,2 46 0,0
24.02.2018 12:00:00 -2,3 11 6 23 12 E 1039,3 46 0,0
24.02.2018 11:00:00 -2,6 16 8 24 13 ESE 1039,2 42 0,0
24.02.2018 10:00:00 -3,3 14 8 22 12 E 1039,1 50 0,0
24.02.2018 09:00:00 -3,3 14 8 23 13 E 1038,9 43 0,0
24.02.2018 08:00:00 -4,0 13 7 23 13 E 1038,5 50 0,0
24.02.2018 07:00:00 -3,8 14 8 22 12 E 1038,2 50 0,0
24.02.2018 06:00:00 -3,6 15 8 26 14 E 1037,7 11 0,1
24.02.2018 05:00:00 -3,2 21 11 28 15 E 1037,2 50 0,0
24.02.2018 04:00:00 -2,9 20 11 26 14 ENE 1036,7 45 0,0
24.02.2018 03:00:00 -2,6 19 10 29 16 E 1036,1 50 0,0
24.02.2018 02:00:00 -2,5 19 10 36 20 E 1035,5 50 0,0
24.02.2018 01:00:00 -2,1 23 12 36 19 E 1034,8 50 0,0
24.02.2018 00:00:00 -1,5 26 14 36 20 E 1033,8 50 0,0
23.02.2018 23:00:00 -0,9 22 12 39 21 E 1033,2 50 0,0
23.02.2018 22:00:00 -0,7 27 14 37 20 E 1032,1 50 0,0
23.02.2018 21:00:00 -0,2 20 11 30 16 E 1031,7 48 0,0
23.02.2018 20:00:00 0,2 12 7 17 9 E 1031,2 47 0,0
23.02.2018 19:00:00 -0,2 9 5 13 7 ENE 1030,8 21 -
23.02.2018 18:00:00 -0,6 4 2 9 5 E 1030,2 23 -
23.02.2018 17:00:00 -0,7 4 2 9 5 NNE 1029,6 25 -
23.02.2018 16:00:00 0,0 0 0 9 5 N 1028,9 27 -
23.02.2018 15:00:00 0,9 6 3 18 10 WNW 1028,9 30 -
23.02.2018 14:00:00 0,6 11 6 16 9 SSW 1028,6 35 -
23.02.2018 13:00:00 0,3 3 2 11 6 NNW 1028,6 21 -
23.02.2018 12:00:00 0,1 5 3 11 6 N 1028,6 22 0,0
23.02.2018 11:00:00 0,2 6 3 16 9 WNW 1028,3 25 0,0
23.02.2018 10:00:00 0,6 9 5 20 11 SW 1028,0 50 0,0
23.02.2018 09:00:00 0,2 10 6 18 10 SW 1027,8 47 0,0
23.02.2018 08:00:00 -0,4 8 4 19 11 W 1027,6 24 0,0
23.02.2018 07:00:00 -0,3 11 6 21 11 WSW 1027,5 35 0,0
23.02.2018 06:00:00 -0,3 14 7 20 11 SW 1027,3 42 0,0
23.02.2018 05:00:00 -0,4 11 6 21 12 SW 1027,4 41 0,0
23.02.2018 04:00:00 -0,5 13 7 20 11 SW 1027,6 48 0,0
23.02.2018 03:00:00 -0,8 8 5 18 10 WSW 1027,9 42 0,0
23.02.2018 02:00:00 -2,2 5 3 7 4 SSE 1028,2 19 0,0
23.02.2018 01:00:00 -2,8 5 3 8 5 ESE 1028,4 17 0,0
23.02.2018 00:00:00 -3,3 5 3 9 5 E 1028,6 15 0,0
22.02.2018 23:00:00 -3,4 5 3 10 5 E 1028,7 17 0,0
22.02.2018 22:00:00 -3,7 7 4 10 5 E 1028,9 18 0,0
22.02.2018 21:00:00 -4,0 7 4 8 5 E 1028,9 21 0,0
22.02.2018 20:00:00 -3,8 6 3 7 4 E 1029,3 19 0,0
22.02.2018 19:00:00 -3,3 2 1 9 5 NW 1029,3 26 0,0
22.02.2018 18:00:00 -3,1 0 0 7 4 N 1029,4 30 0,0
22.02.2018 17:00:00 -3,1 5 3 9 5 NNE 1029,5 31 0,0
22.02.2018 16:00:00 -3,1 6 3 9 5 NNW 1029,6 38 0,0
22.02.2018 15:00:00 -3,1 4 2 12 6 NNE 1029,9 38 0,0
22.02.2018 14:00:00 -3,0 7 4 14 8 N 1030,3 39 0,0
22.02.2018 13:00:00 -2,7 3 2 16 9 NNW 1030,4 40 0,0
22.02.2018 12:00:00 -2,6 10 5 20 11 NNW 1030,3 33 0,0
22.02.2018 11:00:00 -2,2 6 3 16 9 NNW 1030,4 24 0,0
22.02.2018 10:00:00 -2,1 9 5 17 9 NW 1030,5 21 0,0
22.02.2018 09:00:00 -2,2 5 3 16 9 N 1030,5 19 0,0
22.02.2018 08:00:00 -2,0 9 5 13 7 NW 1030,1 18 0,0
22.02.2018 07:00:00 -1,9 9 5 14 8 WNW 1029,8 27 0,0
22.02.2018 06:00:00 -1,7 8 5 14 8 NW 1029,8 30 0,0
22.02.2018 05:00:00 -1,7 3 2 12 6 NNW 1029,8 34 0,0
22.02.2018 04:00:00 -1,6 5 3 9 5 N 1029,8 41 0,0
22.02.2018 03:00:00 -1,7 6 4 9 5 ENE 1029,8 40 0,0
22.02.2018 02:00:00 -1,7 0 0 7 4 N 1029,9 36 0,0
22.02.2018 01:00:00 -1,9 0 0 8 4 N 1029,5 32 0,0
22.02.2018 00:00:00 -1,8 5 3 8 4 E 1029,3 33 0,0
21.02.2018 23:00:00 -1,7 3 2 11 6 E 1029,3 33 0,0
21.02.2018 22:00:00 -1,6 8 5 12 7 E 1029,1 36 0,0
21.02.2018 21:00:00 -1,4 9 5 13 7 E 1028,7 31 0,0
21.02.2018 20:00:00 -1,3 8 5 12 6 E 1028,1 34 0,0
21.02.2018 19:00:00 -1,0 8 4 11 6 E 1027,7 33 0,0
21.02.2018 18:00:00 -1,1 8 5 13 7 ENE 1027,1 33 0,0
21.02.2018 17:00:00 -1,1 9 5 16 9 ENE 1026,8 49 0,0
21.02.2018 16:00:00 -1,2 13 7 19 10 E 1026,1 44 0,0
21.02.2018 15:00:00 -1,4 13 7 19 10 E 1026,3 30 0,0
21.02.2018 14:00:00 -1,4 11 6 15 8 E 1026,5 23 0,0
21.02.2018 13:00:00 -1,6 11 6 18 10 E 1026,4 28 0,0
21.02.2018 12:00:00 -1,7 10 5 17 9 ESE 1026,3 23 0,0
21.02.2018 11:00:00 -1,9 11 6 20 11 ESE 1026,1 20 0,0
21.02.2018 10:00:00 -2,1 10 5 14 8 ESE 1026,0 15 0,0
21.02.2018 09:00:00 -2,7 7 4 14 8 ESE 1026,0 6 0,0
21.02.2018 08:00:00 -2,5 10 5 14 8 ESE 1025,7 3,6 0,0
21.02.2018 07:00:00 -2,7 5 3 9 5 ESE 1026,0 12 0,0
21.02.2018 06:00:00 -2,6 6 3 9 5 SE 1026,1 13 0,0
21.02.2018 05:00:00 -2,6 4 2 7 4 ESE 1026,5 13 0,0
21.02.2018 04:00:00 -2,8 6 4 9 5 SSE 1026,9 13 0,0
21.02.2018 03:00:00 -2,9 5 3 8 5 ESE 1027,1 13 0,0
21.02.2018 02:00:00 -2,7 3 2 8 5 SE 1027,5 11 0,0
21.02.2018 01:00:00 -2,7 7 4 9 5 SSE 1027,8 17 0,0
21.02.2018 00:00:00 -2,9 6 3 11 6 SE 1027,9 16 0,0
20.02.2018 23:00:00 -2,9 7 4 11 6 ESE 1027,7 7 0,0
20.02.2018 22:00:00 -2,9 6 3 9 5 ESE 1028,1 10 0,0
20.02.2018 21:00:00 -2,6 3 2 8 4 ESE 1028,2 1,2 0,2
20.02.2018 20:00:00 -2,2 4 2 10 5 E 1028,2 34 0,0
20.02.2018 19:00:00 -2,0 5 3 9 5 ENE 1028,1 22 0,0
20.02.2018 18:00:00 -2,0 7 4 10 6 ENE 1027,9 13 0,0
20.02.2018 17:00:00 -1,8 8 4 14 8 E 1028,0 16 0,0
20.02.2018 16:00:00 -1,6 10 6 16 9 E 1027,7 27 0,0
20.02.2018 15:00:00 -1,5 11 6 17 9 ENE 1027,8 16 0,0
20.02.2018 14:00:00 -1,6 13 7 24 13 ENE 1027,9 16 0,0
20.02.2018 13:00:00 -1,7 18 10 26 14 E 1028,0 25 0,0
20.02.2018 12:00:00 -2,0 17 9 28 15 E 1027,8 32 0,0
20.02.2018 11:00:00 -2,5 21 11 31 17 ENE 1027,7 21 0,0
20.02.2018 10:00:00 -2,7 22 12 29 16 ENE 1027,7 10 0,0
20.02.2018 09:00:00 -2,7 20 11 31 17 E 1027,4 5 0,1
20.02.2018 08:00:00 -2,7 21 11 33 18 ENE 1027,3 11 0,0
20.02.2018 07:00:00 -2,6 24 13 34 18 ENE 1027,2 13 0,0
20.02.2018 06:00:00 -2,5 24 13 35 19 ENE 1026,9 10 0,0
20.02.2018 05:00:00 -2,4 24 13 34 19 ENE 1027,0 22 0,0
20.02.2018 04:00:00 -2,3 20 11 41 22 ENE 1026,9 31 0,0
20.02.2018 03:00:00 -2,2 36 20 49 27 E 1026,4 31 0,0
20.02.2018 02:00:00 -2,0 34 18 45 24 ENE 1026,6 29 0,0
20.02.2018 01:00:00 -1,9 29 16 44 24 ENE 1027,0 31 0,0
20.02.2018 00:00:00 -1,7 27 14 41 22 ENE 1026,7 34 0,0
19.02.2018 23:00:00 -1,6 28 15 53 29 ENE 1026,4 31 0,0
19.02.2018 22:00:00 -1,5 37 20 51 28 ENE 1026,0 32 0,0
19.02.2018 21:00:00 -1,4 31 17 50 27 ENE 1026,1 35 0,0
19.02.2018 20:00:00 -1,2 39 21 52 28 ENE 1025,9 27 0,0
19.02.2018 19:00:00 -0,9 36 19 51 28 ENE 1025,3 36 0,0
19.02.2018 18:00:00 -0,6 33 18 49 27 NE 1024,8 29 0,0
19.02.2018 17:00:00 -0,3 35 19 53 29 ENE 1024,1 33 0,0
19.02.2018 16:00:00 -0,1 36 19 51 28 ENE 1023,0 34 0,0
19.02.2018 15:00:00 0,2 35 19 52 28 ENE 1022,9 31 0,0
19.02.2018 14:00:00 0,5 31 17 52 28 ENE 1022,4 38 0,0
19.02.2018 13:00:00 1,0 29 16 44 24 NE 1021,8 50 0,0
19.02.2018 12:00:00 1,3 29 15 39 21 NE 1021,5 50 0,0
19.02.2018 11:00:00 1,1 17 9 29 16 NNE 1021,2 20 0,0
19.02.2018 10:00:00 0,4 19 11 28 15 N 1020,6 16 0,1
19.02.2018 09:00:00 -0,2 19 10 29 16 N 1020,3 3,5 0,0
19.02.2018 08:00:00 -0,2 17 9 28 15 N 1019,9 7 0,0
19.02.2018 07:00:00 0,1 18 10 25 13 N 1019,6 4,4 0,0
19.02.2018 06:00:00 0,3 14 8 22 12 N 1019,3 5 0,0

tt = Température de l'air
ff = Vitesse du vent
fx = gusts
dd = Direction du vent
ppp = reduced air pressure
vv = visibility
rr = Quantités de précipitations

stations d'obs. à proximité